sensor_id;sensor_type;location;lat;lon;timestamp;P1;durP1;ratioP1;P2;durP2;ratioP2
71288;SDS011;59068;52.502;9.860;2023-01-28T00:00:29;1.57;;;0.80;;
71288;SDS011;59068;52.502;9.860;2023-01-28T00:02:54;2.07;;;0.53;;
71288;SDS011;59068;52.502;9.860;2023-01-28T00:05:21;0.50;;;0.30;;
71288;SDS011;59068;52.502;9.860;2023-01-28T00:07:51;1.40;;;0.40;;
71288;SDS011;59068;52.502;9.860;2023-01-28T00:10:17;1.00;;;0.53;;
71288;SDS011;59068;52.502;9.860;2023-01-28T00:12:43;1.20;;;0.50;;
71288;SDS011;59068;52.502;9.860;2023-01-28T00:15:08;1.53;;;0.70;;
71288;SDS011;59068;52.502;9.860;2023-01-28T00:17:36;1.97;;;0.73;;
71288;SDS011;59068;52.502;9.860;2023-01-28T00:20:04;2.10;;;0.63;;
71288;SDS011;59068;52.502;9.860;2023-01-28T00:22:32;0.57;;;0.57;;
71288;SDS011;59068;52.502;9.860;2023-01-28T00:24:58;1.77;;;0.63;;
71288;SDS011;59068;52.502;9.860;2023-01-28T00:27:23;1.07;;;0.60;;
71288;SDS011;59068;52.502;9.860;2023-01-28T00:29:50;1.70;;;0.50;;
71288;SDS011;59068;52.502;9.860;2023-01-28T00:32:17;3.60;;;0.70;;
71288;SDS011;59068;52.502;9.860;2023-01-28T00:34:42;0.70;;;0.50;;
71288;SDS011;59068;52.502;9.860;2023-01-28T00:37:07;0.40;;;0.40;;
71288;SDS011;59068;52.502;9.860;2023-01-28T00:39:33;1.60;;;0.50;;
71288;SDS011;59068;52.502;9.860;2023-01-28T00:41:59;0.87;;;0.37;;
71288;SDS011;59068;52.502;9.860;2023-01-28T00:44:26;0.57;;;0.30;;
71288;SDS011;59068;52.502;9.860;2023-01-28T00:46:53;1.03;;;0.40;;
71288;SDS011;59068;52.502;9.860;2023-01-28T00:49:18;0.60;;;0.30;;
71288;SDS011;59068;52.502;9.860;2023-01-28T00:51:43;0.57;;;0.37;;
71288;SDS011;59068;52.502;9.860;2023-01-28T00:54:11;1.80;;;0.50;;
71288;SDS011;59068;52.502;9.860;2023-01-28T00:56:37;1.27;;;0.30;;
71288;SDS011;59068;52.502;9.860;2023-01-28T00:59:02;2.23;;;0.60;;
71288;SDS011;59068;52.502;9.860;2023-01-28T01:01:28;1.50;;;0.60;;
71288;SDS011;59068;52.502;9.860;2023-01-28T01:03:53;2.07;;;0.47;;
71288;SDS011;59068;52.502;9.860;2023-01-28T01:06:39;1.03;;;0.43;;
71288;SDS011;59068;52.502;9.860;2023-01-28T01:09:07;1.60;;;0.47;;
71288;SDS011;59068;52.502;9.860;2023-01-28T01:11:34;0.80;;;0.57;;
71288;SDS011;59068;52.502;9.860;2023-01-28T01:14:00;1.93;;;0.90;;
71288;SDS011;59068;52.502;9.860;2023-01-28T01:16:30;1.57;;;0.50;;
71288;SDS011;59068;52.502;9.860;2023-01-28T01:18:57;2.60;;;0.70;;
71288;SDS011;59068;52.502;9.860;2023-01-28T01:21:24;1.40;;;0.60;;
71288;SDS011;59068;52.502;9.860;2023-01-28T01:23:52;0.50;;;0.43;;
71288;SDS011;59068;52.502;9.860;2023-01-28T01:26:18;1.10;;;0.50;;
71288;SDS011;59068;52.502;9.860;2023-01-28T01:28:44;1.10;;;0.47;;
71288;SDS011;59068;52.502;9.860;2023-01-28T01:31:14;1.13;;;0.60;;
71288;SDS011;59068;52.502;9.860;2023-01-28T01:33:41;0.32;;;0.25;;
71288;SDS011;59068;52.502;9.860;2023-01-28T01:36:07;0.47;;;0.47;;
71288;SDS011;59068;52.502;9.860;2023-01-28T01:38:34;0.73;;;0.53;;
71288;SDS011;59068;52.502;9.860;2023-01-28T01:41:01;1.10;;;0.50;;
71288;SDS011;59068;52.502;9.860;2023-01-28T01:46:16;1.58;;;0.50;;
71288;SDS011;59068;52.502;9.860;2023-01-28T01:48:45;1.45;;;0.57;;
71288;SDS011;59068;52.502;9.860;2023-01-28T01:51:14;3.87;;;0.60;;
71288;SDS011;59068;52.502;9.860;2023-01-28T01:53:44;0.30;;;0.30;;
71288;SDS011;59068;52.502;9.860;2023-01-28T01:56:13;2.77;;;0.60;;
71288;SDS011;59068;52.502;9.860;2023-01-28T01:58:41;1.93;;;0.60;;
71288;SDS011;59068;52.502;9.860;2023-01-28T02:01:08;1.63;;;0.47;;
71288;SDS011;59068;52.502;9.860;2023-01-28T02:03:38;1.13;;;0.60;;
71288;SDS011;59068;52.502;9.860;2023-01-28T02:06:07;1.43;;;0.40;;
71288;SDS011;59068;52.502;9.860;2023-01-28T02:08:34;2.00;;;0.57;;
71288;SDS011;59068;52.502;9.860;2023-01-28T02:11:05;1.57;;;0.60;;
71288;SDS011;59068;52.502;9.860;2023-01-28T02:13:37;1.90;;;0.50;;
71288;SDS011;59068;52.502;9.860;2023-01-28T02:16:04;0.97;;;0.57;;
71288;SDS011;59068;52.502;9.860;2023-01-28T02:18:31;2.10;;;0.50;;
71288;SDS011;59068;52.502;9.860;2023-01-28T02:29:32;1.53;;;0.67;;
71288;SDS011;59068;52.502;9.860;2023-01-28T02:32:16;1.43;;;0.60;;
71288;SDS011;59068;52.502;9.860;2023-01-28T02:34:55;0.80;;;0.43;;
71288;SDS011;59068;52.502;9.860;2023-01-28T02:40:23;2.03;;;0.60;;
71288;SDS011;59068;52.502;9.860;2023-01-28T02:42:53;1.60;;;0.43;;
71288;SDS011;59068;52.502;9.860;2023-01-28T02:45:21;1.13;;;0.40;;
71288;SDS011;59068;52.502;9.860;2023-01-28T02:48:19;2.77;;;0.67;;
71288;SDS011;59068;52.502;9.860;2023-01-28T02:51:03;1.20;;;0.40;;
71288;SDS011;59068;52.502;9.860;2023-01-28T02:53:44;1.88;;;0.50;;
71288;SDS011;59068;52.502;9.860;2023-01-28T02:59:10;1.50;;;0.60;;
71288;SDS011;59068;52.502;9.860;2023-01-28T03:04:31;1.37;;;0.70;;
71288;SDS011;59068;52.502;9.860;2023-01-28T03:07:01;1.23;;;0.40;;
71288;SDS011;59068;52.502;9.860;2023-01-28T03:09:28;0.60;;;0.40;;
71288;SDS011;59068;52.502;9.860;2023-01-28T03:14:57;1.77;;;0.50;;
71288;SDS011;59068;52.502;9.860;2023-01-28T03:20:40;1.00;;;0.70;;
71288;SDS011;59068;52.502;9.860;2023-01-28T03:23:36;1.07;;;0.70;;
71288;SDS011;59068;52.502;9.860;2023-01-28T03:26:23;1.00;;;0.50;;
71288;SDS011;59068;52.502;9.860;2023-01-28T03:29:09;1.08;;;0.60;;
71288;SDS011;59068;52.502;9.860;2023-01-28T03:31:56;0.60;;;0.40;;
71288;SDS011;59068;52.502;9.860;2023-01-28T03:34:40;2.30;;;0.93;;
71288;SDS011;59068;52.502;9.860;2023-01-28T03:37:26;0.47;;;0.47;;
71288;SDS011;59068;52.502;9.860;2023-01-28T03:39:53;1.65;;;0.60;;
71288;SDS011;59068;52.502;9.860;2023-01-28T03:42:23;2.75;;;0.65;;
71288;SDS011;59068;52.502;9.860;2023-01-28T03:44:48;1.73;;;0.60;;
71288;SDS011;59068;52.502;9.860;2023-01-28T03:47:15;3.53;;;0.70;;
71288;SDS011;59068;52.502;9.860;2023-01-28T03:49:45;0.43;;;0.43;;
71288;SDS011;59068;52.502;9.860;2023-01-28T03:52:15;1.58;;;0.60;;
71288;SDS011;59068;52.502;9.860;2023-01-28T03:54:42;4.80;;;0.60;;
71288;SDS011;59068;52.502;9.860;2023-01-28T03:57:08;0.65;;;0.50;;
71288;SDS011;59068;52.502;9.860;2023-01-28T03:59:34;0.63;;;0.40;;
71288;SDS011;59068;52.502;9.860;2023-01-28T04:02:00;0.30;;;0.30;;
71288;SDS011;59068;52.502;9.860;2023-01-28T04:04:31;0.90;;;0.50;;
71288;SDS011;59068;52.502;9.860;2023-01-28T04:06:57;1.20;;;0.50;;
71288;SDS011;59068;52.502;9.860;2023-01-28T04:09:22;0.90;;;0.50;;
71288;SDS011;59068;52.502;9.860;2023-01-28T04:11:49;1.10;;;0.70;;
71288;SDS011;59068;52.502;9.860;2023-01-28T04:14:17;1.55;;;0.60;;
71288;SDS011;59068;52.502;9.860;2023-01-28T04:16:43;1.63;;;0.52;;
71288;SDS011;59068;52.502;9.860;2023-01-28T04:19:10;1.53;;;0.70;;
71288;SDS011;59068;52.502;9.860;2023-01-28T04:21:40;0.32;;;0.28;;
71288;SDS011;59068;52.502;9.860;2023-01-28T04:24:07;1.80;;;0.63;;
71288;SDS011;59068;52.502;9.860;2023-01-28T04:26:38;0.63;;;0.40;;
71288;SDS011;59068;52.502;9.860;2023-01-28T04:29:03;1.33;;;0.50;;
71288;SDS011;59068;52.502;9.860;2023-01-28T04:31:31;1.13;;;0.40;;
71288;SDS011;59068;52.502;9.860;2023-01-28T04:33:57;0.88;;;0.45;;
71288;SDS011;59068;52.502;9.860;2023-01-28T04:36:24;1.50;;;0.45;;
71288;SDS011;59068;52.502;9.860;2023-01-28T04:38:50;1.25;;;0.50;;
71288;SDS011;59068;52.502;9.860;2023-01-28T04:41:15;1.90;;;0.60;;
71288;SDS011;59068;52.502;9.860;2023-01-28T04:43:41;1.47;;;0.50;;
71288;SDS011;59068;52.502;9.860;2023-01-28T04:46:07;1.43;;;0.50;;
71288;SDS011;59068;52.502;9.860;2023-01-28T04:48:34;0.77;;;0.60;;
71288;SDS011;59068;52.502;9.860;2023-01-28T04:51:02;3.03;;;0.60;;
71288;SDS011;59068;52.502;9.860;2023-01-28T04:53:28;0.45;;;0.45;;
71288;SDS011;59068;52.502;9.860;2023-01-28T04:55:54;2.13;;;0.40;;
71288;SDS011;59068;52.502;9.860;2023-01-28T04:58:20;1.73;;;0.30;;
71288;SDS011;59068;52.502;9.860;2023-01-28T05:00:46;0.60;;;0.60;;
71288;SDS011;59068;52.502;9.860;2023-01-28T05:03:12;0.60;;;0.50;;
71288;SDS011;59068;52.502;9.860;2023-01-28T05:05:38;1.02;;;0.50;;
71288;SDS011;59068;52.502;9.860;2023-01-28T05:08:05;0.40;;;0.40;;
71288;SDS011;59068;52.502;9.860;2023-01-28T05:10:32;1.90;;;0.57;;
71288;SDS011;59068;52.502;9.860;2023-01-28T05:12:57;1.02;;;0.55;;
71288;SDS011;59068;52.502;9.860;2023-01-28T05:15:24;1.10;;;0.73;;
71288;SDS011;59068;52.502;9.860;2023-01-28T05:17:49;1.42;;;0.65;;
71288;SDS011;59068;52.502;9.860;2023-01-28T05:20:16;0.80;;;0.53;;
71288;SDS011;59068;52.502;9.860;2023-01-28T05:22:41;0.80;;;0.60;;
71288;SDS011;59068;52.502;9.860;2023-01-28T05:25:07;0.60;;;0.60;;
71288;SDS011;59068;52.502;9.860;2023-01-28T05:27:36;1.00;;;0.50;;
71288;SDS011;59068;52.502;9.860;2023-01-28T05:30:03;2.40;;;0.70;;
71288;SDS011;59068;52.502;9.860;2023-01-28T05:32:31;3.85;;;0.70;;
71288;SDS011;59068;52.502;9.860;2023-01-28T05:34:57;0.52;;;0.50;;
71288;SDS011;59068;52.502;9.860;2023-01-28T05:37:22;0.63;;;0.60;;
71288;SDS011;59068;52.502;9.860;2023-01-28T05:39:49;0.55;;;0.55;;
71288;SDS011;59068;52.502;9.860;2023-01-28T05:42:17;0.90;;;0.50;;
71288;SDS011;59068;52.502;9.860;2023-01-28T05:44:45;1.77;;;0.60;;
71288;SDS011;59068;52.502;9.860;2023-01-28T05:47:12;1.50;;;0.80;;
71288;SDS011;59068;52.502;9.860;2023-01-28T05:49:38;0.82;;;0.65;;
71288;SDS011;59068;52.502;9.860;2023-01-28T05:52:05;1.98;;;0.60;;
71288;SDS011;59068;52.502;9.860;2023-01-28T05:54:30;2.35;;;0.65;;
71288;SDS011;59068;52.502;9.860;2023-01-28T05:56:55;1.47;;;0.70;;
71288;SDS011;59068;52.502;9.860;2023-01-28T05:59:21;0.80;;;0.67;;
71288;SDS011;59068;52.502;9.860;2023-01-28T06:01:48;1.73;;;0.57;;
71288;SDS011;59068;52.502;9.860;2023-01-28T06:04:15;1.17;;;0.50;;
71288;SDS011;59068;52.502;9.860;2023-01-28T06:06:42;1.02;;;0.68;;
71288;SDS011;59068;52.502;9.860;2023-01-28T06:09:08;0.47;;;0.47;;
71288;SDS011;59068;52.502;9.860;2023-01-28T06:11:34;1.73;;;0.60;;
71288;SDS011;59068;52.502;9.860;2023-01-28T06:14:00;2.33;;;0.70;;
71288;SDS011;59068;52.502;9.860;2023-01-28T06:16:27;2.23;;;0.70;;
71288;SDS011;59068;52.502;9.860;2023-01-28T06:18:52;1.20;;;1.10;;
71288;SDS011;59068;52.502;9.860;2023-01-28T06:21:18;2.33;;;1.40;;
71288;SDS011;59068;52.502;9.860;2023-01-28T06:23:43;3.53;;;3.00;;
71288;SDS011;59068;52.502;9.860;2023-01-28T06:26:08;4.00;;;2.80;;
71288;SDS011;59068;52.502;9.860;2023-01-28T06:28:34;4.30;;;2.37;;
71288;SDS011;59068;52.502;9.860;2023-01-28T06:31:01;1.63;;;1.03;;
71288;SDS011;59068;52.502;9.860;2023-01-28T06:33:30;3.03;;;0.90;;
71288;SDS011;59068;52.502;9.860;2023-01-28T06:36:00;2.00;;;1.40;;
71288;SDS011;59068;52.502;9.860;2023-01-28T06:38:27;0.93;;;0.90;;
71288;SDS011;59068;52.502;9.860;2023-01-28T06:40:53;0.90;;;0.60;;
71288;SDS011;59068;52.502;9.860;2023-01-28T06:43:20;0.82;;;0.40;;
71288;SDS011;59068;52.502;9.860;2023-01-28T06:45:53;0.43;;;0.40;;
71288;SDS011;59068;52.502;9.860;2023-01-28T06:48:19;3.50;;;0.70;;
71288;SDS011;59068;52.502;9.860;2023-01-28T06:50:47;0.80;;;0.80;;
71288;SDS011;59068;52.502;9.860;2023-01-28T06:53:13;1.85;;;1.00;;
71288;SDS011;59068;52.502;9.860;2023-01-28T06:55:39;1.10;;;0.60;;
71288;SDS011;59068;52.502;9.860;2023-01-28T06:58:05;2.20;;;0.60;;
71288;SDS011;59068;52.502;9.860;2023-01-28T07:00:32;1.77;;;0.73;;
71288;SDS011;59068;52.502;9.860;2023-01-28T07:02:58;2.17;;;1.20;;
71288;SDS011;59068;52.502;9.860;2023-01-28T07:05:24;1.70;;;0.80;;
71288;SDS011;59068;52.502;9.860;2023-01-28T07:07:51;1.23;;;0.70;;
71288;SDS011;59068;52.502;9.860;2023-01-28T07:10:16;1.50;;;0.60;;
71288;SDS011;59068;52.502;9.860;2023-01-28T07:12:43;2.27;;;0.80;;
71288;SDS011;59068;52.502;9.860;2023-01-28T07:15:10;1.85;;;0.57;;
71288;SDS011;59068;52.502;9.860;2023-01-28T07:17:40;1.70;;;0.60;;
71288;SDS011;59068;52.502;9.860;2023-01-28T07:20:09;1.05;;;0.60;;
71288;SDS011;59068;52.502;9.860;2023-01-28T07:22:40;1.67;;;0.75;;
71288;SDS011;59068;52.502;9.860;2023-01-28T07:25:09;3.10;;;0.73;;
71288;SDS011;59068;52.502;9.860;2023-01-28T07:27:36;1.77;;;0.90;;
71288;SDS011;59068;52.502;9.860;2023-01-28T07:30:02;2.17;;;0.90;;
71288;SDS011;59068;52.502;9.860;2023-01-28T07:32:30;2.05;;;0.70;;
71288;SDS011;59068;52.502;9.860;2023-01-28T07:34:57;1.33;;;0.85;;
71288;SDS011;59068;52.502;9.860;2023-01-28T07:37:25;1.75;;;0.55;;
71288;SDS011;59068;52.502;9.860;2023-01-28T07:39:51;0.70;;;0.70;;
71288;SDS011;59068;52.502;9.860;2023-01-28T07:42:18;1.47;;;0.80;;
71288;SDS011;59068;52.502;9.860;2023-01-28T07:44:45;3.63;;;0.98;;
71288;SDS011;59068;52.502;9.860;2023-01-28T07:47:10;2.25;;;0.90;;
71288;SDS011;59068;52.502;9.860;2023-01-28T07:49:37;1.02;;;0.85;;
71288;SDS011;59068;52.502;9.860;2023-01-28T07:52:04;0.98;;;0.80;;
71288;SDS011;59068;52.502;9.860;2023-01-28T07:54:34;2.05;;;1.27;;
71288;SDS011;59068;52.502;9.860;2023-01-28T07:57:01;2.15;;;0.82;;
71288;SDS011;59068;52.502;9.860;2023-01-28T07:59:35;4.18;;;1.10;;
71288;SDS011;59068;52.502;9.860;2023-01-28T08:02:03;2.58;;;1.00;;
71288;SDS011;59068;52.502;9.860;2023-01-28T08:04:29;2.08;;;1.20;;
71288;SDS011;59068;52.502;9.860;2023-01-28T08:06:55;1.67;;;1.00;;
71288;SDS011;59068;52.502;9.860;2023-01-28T08:09:21;1.35;;;1.13;;
71288;SDS011;59068;52.502;9.860;2023-01-28T08:11:46;1.03;;;1.03;;
71288;SDS011;59068;52.502;9.860;2023-01-28T08:14:13;1.00;;;0.90;;
71288;SDS011;59068;52.502;9.860;2023-01-28T08:16:39;1.53;;;1.10;;
71288;SDS011;59068;52.502;9.860;2023-01-28T08:19:06;1.13;;;0.97;;
71288;SDS011;59068;52.502;9.860;2023-01-28T08:21:34;1.80;;;0.93;;
71288;SDS011;59068;52.502;9.860;2023-01-28T08:24:03;2.85;;;1.08;;
71288;SDS011;59068;52.502;9.860;2023-01-28T08:26:30;2.20;;;1.30;;
71288;SDS011;59068;52.502;9.860;2023-01-28T08:28:57;1.20;;;1.00;;
71288;SDS011;59068;52.502;9.860;2023-01-28T08:31:23;1.20;;;0.90;;
71288;SDS011;59068;52.502;9.860;2023-01-28T08:33:49;2.13;;;1.00;;
71288;SDS011;59068;52.502;9.860;2023-01-28T08:36:14;1.20;;;1.17;;
71288;SDS011;59068;52.502;9.860;2023-01-28T08:38:40;2.90;;;1.37;;
71288;SDS011;59068;52.502;9.860;2023-01-28T08:41:06;1.77;;;1.13;;
71288;SDS011;59068;52.502;9.860;2023-01-28T08:43:35;1.67;;;1.05;;
71288;SDS011;59068;52.502;9.860;2023-01-28T08:46:03;3.13;;;1.38;;
71288;SDS011;59068;52.502;9.860;2023-01-28T08:48:31;1.70;;;1.38;;
71288;SDS011;59068;52.502;9.860;2023-01-28T08:50:59;2.50;;;1.30;;
71288;SDS011;59068;52.502;9.860;2023-01-28T08:53:25;2.25;;;1.55;;
71288;SDS011;59068;52.502;9.860;2023-01-28T08:55:50;2.17;;;1.40;;
71288;SDS011;59068;52.502;9.860;2023-01-28T08:58:16;1.10;;;1.10;;
71288;SDS011;59068;52.502;9.860;2023-01-28T09:00:44;1.83;;;1.55;;
71288;SDS011;59068;52.502;9.860;2023-01-28T09:03:10;1.90;;;1.23;;
71288;SDS011;59068;52.502;9.860;2023-01-28T09:05:35;1.43;;;1.33;;
71288;SDS011;59068;52.502;9.860;2023-01-28T09:08:04;2.30;;;1.43;;
71288;SDS011;59068;52.502;9.860;2023-01-28T09:10:31;1.75;;;1.55;;
71288;SDS011;59068;52.502;9.860;2023-01-28T09:12:58;1.60;;;1.50;;
71288;SDS011;59068;52.502;9.860;2023-01-28T09:15:26;1.52;;;1.17;;
71288;SDS011;59068;52.502;9.860;2023-01-28T09:17:59;1.70;;;1.60;;
71288;SDS011;59068;52.502;9.860;2023-01-28T09:20:26;1.83;;;1.55;;
71288;SDS011;59068;52.502;9.860;2023-01-28T09:22:53;2.85;;;1.67;;
71288;SDS011;59068;52.502;9.860;2023-01-28T09:25:18;3.15;;;1.80;;
71288;SDS011;59068;52.502;9.860;2023-01-28T09:27:44;1.80;;;1.70;;
71288;SDS011;59068;52.502;9.860;2023-01-28T09:30:10;2.30;;;1.80;;
71288;SDS011;59068;52.502;9.860;2023-01-28T09:32:38;3.97;;;2.15;;
71288;SDS011;59068;52.502;9.860;2023-01-28T09:35:04;2.67;;;1.88;;
71288;SDS011;59068;52.502;9.860;2023-01-28T09:37:31;6.67;;;2.30;;
71288;SDS011;59068;52.502;9.860;2023-01-28T09:39:56;2.72;;;1.90;;
71288;SDS011;59068;52.502;9.860;2023-01-28T09:42:26;3.30;;;2.10;;
71288;SDS011;59068;52.502;9.860;2023-01-28T09:47:57;2.22;;;2.03;;
71288;SDS011;59068;52.502;9.860;2023-01-28T09:58:26;2.35;;;1.63;;
71288;SDS011;59068;52.502;9.860;2023-01-28T10:06:44;2.72;;;2.53;;
71288;SDS011;59068;52.502;9.860;2023-01-28T10:11:58;2.05;;;1.92;;
71288;SDS011;59068;52.502;9.860;2023-01-28T10:20:27;2.67;;;1.98;;
71288;SDS011;59068;52.502;9.860;2023-01-28T10:23:07;5.40;;;2.22;;
71288;SDS011;59068;52.502;9.860;2023-01-28T10:25:59;2.47;;;2.28;;
71288;SDS011;59068;52.502;9.860;2023-01-28T10:29:02;4.28;;;2.13;;
71288;SDS011;59068;52.502;9.860;2023-01-28T10:31:31;2.60;;;2.10;;
71288;SDS011;59068;52.502;9.860;2023-01-28T10:34:00;4.30;;;3.33;;
71288;SDS011;59068;52.502;9.860;2023-01-28T10:36:28;6.13;;;4.00;;
71288;SDS011;59068;52.502;9.860;2023-01-28T10:38:54;2.05;;;1.80;;
71288;SDS011;59068;52.502;9.860;2023-01-28T10:41:20;2.40;;;1.97;;
71288;SDS011;59068;52.502;9.860;2023-01-28T10:43:50;4.68;;;2.10;;
71288;SDS011;59068;52.502;9.860;2023-01-28T10:46:37;2.22;;;2.00;;
71288;SDS011;59068;52.502;9.860;2023-01-28T10:51:32;4.10;;;2.47;;
71288;SDS011;59068;52.502;9.860;2023-01-28T10:54:40;3.28;;;2.20;;
71288;SDS011;59068;52.502;9.860;2023-01-28T10:57:03;5.60;;;2.70;;
71288;SDS011;59068;52.502;9.860;2023-01-28T11:08:05;1.83;;;1.73;;
71288;SDS011;59068;52.502;9.860;2023-01-28T11:10:40;2.35;;;1.85;;
71288;SDS011;59068;52.502;9.860;2023-01-28T11:13:12;1.65;;;1.48;;
71288;SDS011;59068;52.502;9.860;2023-01-28T11:15:47;1.77;;;1.35;;
71288;SDS011;59068;52.502;9.860;2023-01-28T11:18:33;1.65;;;1.55;;
71288;SDS011;59068;52.502;9.860;2023-01-28T11:24:06;2.65;;;1.70;;
71288;SDS011;59068;52.502;9.860;2023-01-28T11:26:54;2.50;;;1.95;;
71288;SDS011;59068;52.502;9.860;2023-01-28T11:32:14;3.15;;;1.67;;
71288;SDS011;59068;52.502;9.860;2023-01-28T11:34:47;2.38;;;2.00;;
71288;SDS011;59068;52.502;9.860;2023-01-28T11:37:14;1.60;;;1.50;;
71288;SDS011;59068;52.502;9.860;2023-01-28T11:39:40;2.05;;;1.25;;
71288;SDS011;59068;52.502;9.860;2023-01-28T11:42:19;2.13;;;1.57;;
71288;SDS011;59068;52.502;9.860;2023-01-28T11:44:47;3.35;;;2.17;;
71288;SDS011;59068;52.502;9.860;2023-01-28T12:01:32;3.08;;;2.13;;
71288;SDS011;59068;52.502;9.860;2023-01-28T12:07:04;2.13;;;1.98;;
71288;SDS011;59068;52.502;9.860;2023-01-28T12:20:59;3.75;;;2.38;;
71288;SDS011;59068;52.502;9.860;2023-01-28T12:26:40;2.50;;;2.30;;
71288;SDS011;59068;52.502;9.860;2023-01-28T12:49:19;2.45;;;2.25;;
71288;SDS011;59068;52.502;9.860;2023-01-28T12:57:35;2.70;;;2.50;;
71288;SDS011;59068;52.502;9.860;2023-01-28T13:02:38;2.90;;;2.53;;
71288;SDS011;59068;52.502;9.860;2023-01-28T13:05:07;2.50;;;2.30;;
71288;SDS011;59068;52.502;9.860;2023-01-28T13:10:38;2.33;;;2.13;;
71288;SDS011;59068;52.502;9.860;2023-01-28T13:13:06;3.75;;;2.38;;
71288;SDS011;59068;52.502;9.860;2023-01-28T13:15:56;2.28;;;2.08;;
71288;SDS011;59068;52.502;9.860;2023-01-28T13:26:43;3.80;;;2.95;;
71288;SDS011;59068;52.502;9.860;2023-01-28T13:31:46;3.13;;;2.90;;
71288;SDS011;59068;52.502;9.860;2023-01-28T13:34:32;4.65;;;3.80;;
71288;SDS011;59068;52.502;9.860;2023-01-28T13:37:22;4.57;;;2.92;;
71288;SDS011;59068;52.502;9.860;2023-01-28T13:42:39;5.10;;;4.15;;
71288;SDS011;59068;52.502;9.860;2023-01-28T13:47:39;4.88;;;4.40;;
71288;SDS011;59068;52.502;9.860;2023-01-28T13:50:20;3.53;;;3.13;;
71288;SDS011;59068;52.502;9.860;2023-01-28T13:52:52;3.25;;;3.05;;
71288;SDS011;59068;52.502;9.860;2023-01-28T13:55:23;3.92;;;3.50;;
71288;SDS011;59068;52.502;9.860;2023-01-28T14:00:45;4.90;;;4.50;;
71288;SDS011;59068;52.502;9.860;2023-01-28T14:17:44;7.60;;;5.45;;
71288;SDS011;59068;52.502;9.860;2023-01-28T14:22:43;6.72;;;6.10;;
71288;SDS011;59068;52.502;9.860;2023-01-28T14:25:13;6.00;;;5.50;;
71288;SDS011;59068;52.502;9.860;2023-01-28T14:27:41;6.57;;;5.78;;
71288;SDS011;59068;52.502;9.860;2023-01-28T14:30:23;7.38;;;6.75;;
71288;SDS011;59068;52.502;9.860;2023-01-28T14:32:53;7.15;;;6.43;;
71288;SDS011;59068;52.502;9.860;2023-01-28T14:35:24;6.87;;;6.07;;
71288;SDS011;59068;52.502;9.860;2023-01-28T14:37:55;6.72;;;6.22;;
71288;SDS011;59068;52.502;9.860;2023-01-28T14:40:22;6.53;;;5.90;;
71288;SDS011;59068;52.502;9.860;2023-01-28T14:42:49;7.20;;;6.60;;
71288;SDS011;59068;52.502;9.860;2023-01-28T14:48:21;7.40;;;6.80;;
71288;SDS011;59068;52.502;9.860;2023-01-28T14:58:50;7.80;;;7.13;;
71288;SDS011;59068;52.502;9.860;2023-01-28T15:01:23;6.70;;;6.18;;
71288;SDS011;59068;52.502;9.860;2023-01-28T15:03:52;6.75;;;6.25;;
71288;SDS011;59068;52.502;9.860;2023-01-28T15:06:20;7.23;;;6.60;;
71288;SDS011;59068;52.502;9.860;2023-01-28T15:08:48;7.18;;;6.68;;
71288;SDS011;59068;52.502;9.860;2023-01-28T15:11:18;7.55;;;6.80;;
71288;SDS011;59068;52.502;9.860;2023-01-28T15:13:46;7.47;;;6.85;;
71288;SDS011;59068;52.502;9.860;2023-01-28T15:16:17;6.32;;;5.82;;
71288;SDS011;59068;52.502;9.860;2023-01-28T15:18:44;6.90;;;6.30;;
71288;SDS011;59068;52.502;9.860;2023-01-28T15:21:10;14.37;;;9.23;;
71288;SDS011;59068;52.502;9.860;2023-01-28T15:23:36;14.07;;;9.43;;
71288;SDS011;59068;52.502;9.860;2023-01-28T15:26:09;8.48;;;7.78;;
71288;SDS011;59068;52.502;9.860;2023-01-28T15:28:39;7.85;;;6.90;;
71288;SDS011;59068;52.502;9.860;2023-01-28T15:31:15;6.60;;;6.07;;
71288;SDS011;59068;52.502;9.860;2023-01-28T15:36:24;11.27;;;6.93;;
71288;SDS011;59068;52.502;9.860;2023-01-28T15:38:50;7.35;;;6.72;;
71288;SDS011;59068;52.502;9.860;2023-01-28T15:41:17;7.23;;;6.63;;
71288;SDS011;59068;52.502;9.860;2023-01-28T15:43:45;7.25;;;6.47;;
71288;SDS011;59068;52.502;9.860;2023-01-28T15:46:13;7.28;;;6.68;;
71288;SDS011;59068;52.502;9.860;2023-01-28T15:48:41;8.18;;;7.38;;
71288;SDS011;59068;52.502;9.860;2023-01-28T15:51:16;6.72;;;6.28;;
71288;SDS011;59068;52.502;9.860;2023-01-28T15:53:57;6.78;;;6.28;;
71288;SDS011;59068;52.502;9.860;2023-01-28T15:56:27;7.00;;;6.40;;
71288;SDS011;59068;52.502;9.860;2023-01-28T15:58:53;7.35;;;6.72;;
71288;SDS011;59068;52.502;9.860;2023-01-28T16:01:20;8.48;;;7.68;;
71288;SDS011;59068;52.502;9.860;2023-01-28T16:03:47;8.30;;;7.50;;
71288;SDS011;59068;52.502;9.860;2023-01-28T16:06:28;7.57;;;6.85;;
71288;SDS011;59068;52.502;9.860;2023-01-28T16:08:58;7.57;;;6.88;;
71288;SDS011;59068;52.502;9.860;2023-01-28T16:11:35;7.72;;;6.97;;
71288;SDS011;59068;52.502;9.860;2023-01-28T16:14:14;5.82;;;5.38;;
71288;SDS011;59068;52.502;9.860;2023-01-28T16:16:48;15.87;;;11.93;;
71288;SDS011;59068;52.502;9.860;2023-01-28T16:19:20;15.60;;;14.10;;
71288;SDS011;59068;52.502;9.860;2023-01-28T16:21:52;9.50;;;8.47;;
71288;SDS011;59068;52.502;9.860;2023-01-28T16:24:24;8.50;;;7.80;;
71288;SDS011;59068;52.502;9.860;2023-01-28T16:26:56;7.27;;;6.63;;
71288;SDS011;59068;52.502;9.860;2023-01-28T16:29:24;7.10;;;6.43;;
71288;SDS011;59068;52.502;9.860;2023-01-28T16:31:50;6.90;;;6.30;;
71288;SDS011;59068;52.502;9.860;2023-01-28T16:34:15;6.77;;;6.07;;
71288;SDS011;59068;52.502;9.860;2023-01-28T16:36:41;6.47;;;5.87;;
71288;SDS011;59068;52.502;9.860;2023-01-28T16:39:06;7.20;;;6.60;;
71288;SDS011;59068;52.502;9.860;2023-01-28T16:41:32;8.17;;;7.57;;
71288;SDS011;59068;52.502;9.860;2023-01-28T16:44:03;9.17;;;8.23;;
71288;SDS011;59068;52.502;9.860;2023-01-28T16:46:30;9.70;;;8.70;;
71288;SDS011;59068;52.502;9.860;2023-01-28T16:48:57;11.13;;;9.63;;
71288;SDS011;59068;52.502;9.860;2023-01-28T16:51:22;10.03;;;9.03;;
71288;SDS011;59068;52.502;9.860;2023-01-28T16:53:48;10.57;;;9.43;;
71288;SDS011;59068;52.502;9.860;2023-01-28T16:56:16;9.97;;;8.93;;
71288;SDS011;59068;52.502;9.860;2023-01-28T16:58:43;10.20;;;9.17;;
71288;SDS011;59068;52.502;9.860;2023-01-28T17:01:08;10.40;;;9.43;;
71288;SDS011;59068;52.502;9.860;2023-01-28T17:03:35;10.63;;;9.57;;
71288;SDS011;59068;52.502;9.860;2023-01-28T17:06:05;10.60;;;9.50;;
71288;SDS011;59068;52.502;9.860;2023-01-28T17:08:32;10.43;;;9.38;;
71288;SDS011;59068;52.502;9.860;2023-01-28T17:10:58;12.70;;;11.20;;
71288;SDS011;59068;52.502;9.860;2023-01-28T17:13:24;12.85;;;11.15;;
71288;SDS011;59068;52.502;9.860;2023-01-28T17:15:51;10.40;;;9.37;;
71288;SDS011;59068;52.502;9.860;2023-01-28T17:18:17;10.27;;;8.98;;
71288;SDS011;59068;52.502;9.860;2023-01-28T17:20:42;10.10;;;9.13;;
71288;SDS011;59068;52.502;9.860;2023-01-28T17:23:10;11.17;;;9.97;;
71288;SDS011;59068;52.502;9.860;2023-01-28T17:25:40;9.70;;;8.80;;
71288;SDS011;59068;52.502;9.860;2023-01-28T17:28:07;10.93;;;9.00;;
71288;SDS011;59068;52.502;9.860;2023-01-28T17:30:37;10.73;;;9.63;;
71288;SDS011;59068;52.502;9.860;2023-01-28T17:33:04;10.70;;;9.25;;
71288;SDS011;59068;52.502;9.860;2023-01-28T17:35:31;10.67;;;9.67;;
71288;SDS011;59068;52.502;9.860;2023-01-28T17:38:00;10.45;;;9.40;;
71288;SDS011;59068;52.502;9.860;2023-01-28T17:40:28;11.55;;;10.35;;
71288;SDS011;59068;52.502;9.860;2023-01-28T17:42:54;14.02;;;10.07;;
71288;SDS011;59068;52.502;9.860;2023-01-28T17:45:24;16.58;;;12.95;;
71288;SDS011;59068;52.502;9.860;2023-01-28T17:47:50;23.70;;;15.18;;
71288;SDS011;59068;52.502;9.860;2023-01-28T17:50:16;25.90;;;15.77;;
71288;SDS011;59068;52.502;9.860;2023-01-28T17:52:41;25.00;;;16.87;;
71288;SDS011;59068;52.502;9.860;2023-01-28T17:55:08;16.25;;;13.32;;
71288;SDS011;59068;52.502;9.860;2023-01-28T17:57:35;17.33;;;13.23;;